Weather at Central Agramonte Airport

Public forecast

Using degrees Celsius for public forecast. Weather courtesy of forecast.io.

Closest aviation weather report (METAR) to Central Agramonte Airport

Report is more than 2 hours old.

Closest report is Ignacio Agramonte International Airport, 22.9 nm (42.4 km) ESE.

2024/06/24 20:50 (retrieved 5 hours ago)

MUCM 242050Z 19004KT 160V220 9000 SCT020 BKN080 28/25 Q1014

Closest aviation forecast (TAF) to Central Agramonte Airport

Forecast is more than 6 hours old.

Closest forecast is Ignacio Agramonte International Airport, 22.9 nm (42.4 km) ESE.

2024/06/24 18:03 (retrieved 8 hours ago)

TAF MUCM 241700Z 2418/2518 VRB04KT 9000 SCT020 BKN080 TEMPO 2420/2424 5000 RA VCTS FEW018CB BKN020